createdAt,value
2023-03-21T06:03:09.731Z,0.50
2023-03-21T06:04:10.877Z,0.50
2023-03-21T06:05:10.778Z,0.50
2023-03-21T06:06:10.765Z,0.50
2023-03-21T06:07:10.807Z,0.50
2023-03-21T06:08:09.846Z,0.50
2023-03-21T06:09:09.837Z,0.34
2023-03-21T06:10:10.883Z,0.34
2023-03-21T06:11:11.005Z,0.34
2023-03-21T06:12:11.070Z,0.34
2023-03-21T06:13:10.060Z,0.34
2023-03-21T06:14:11.130Z,0.34
2023-03-21T06:15:11.138Z,0.34
2023-03-21T06:16:10.246Z,0.34
2023-03-21T06:17:10.210Z,0.34
2023-03-21T06:18:11.243Z,0.34
2023-03-21T06:19:11.314Z,0.34
2023-03-21T06:20:11.320Z,0.34
2023-03-21T06:21:11.354Z,0.34
2023-03-21T06:22:11.405Z,0.34
2023-03-21T06:23:11.436Z,0.34
2023-03-21T06:24:10.476Z,0.34
2023-03-21T06:25:10.502Z,0.34
2023-03-21T06:26:11.537Z,0.34
2023-03-21T06:27:11.578Z,0.34
2023-03-21T06:28:11.619Z,0.34
2023-03-21T06:29:10.635Z,0.38
2023-03-21T06:30:10.675Z,0.45
2023-03-21T06:31:11.732Z,0.50
2023-03-21T06:32:10.730Z,0.50
2023-03-21T06:33:11.748Z,0.50
2023-03-21T06:34:11.811Z,0.50
2023-03-21T06:35:10.796Z,0.50
2023-03-21T06:36:10.785Z,0.50
2023-03-21T06:37:11.816Z,0.50
2023-03-21T06:38:11.858Z,0.50
2023-03-21T06:39:11.877Z,0.50
2023-03-21T06:40:11.903Z,0.50
2023-03-21T06:41:11.933Z,0.50
2023-03-21T06:42:11.936Z,0.50
2023-03-21T06:43:11.952Z,0.50
2023-03-21T06:44:11.984Z,0.50
2023-03-21T06:45:11.993Z,0.51
2023-03-21T06:46:12.027Z,0.50
2023-03-21T06:47:12.038Z,0.50
2023-03-21T06:48:12.149Z,0.50
2023-03-21T06:49:12.076Z,0.50
2023-03-21T06:50:12.084Z,0.51
2023-03-21T06:51:12.147Z,0.50
2023-03-21T06:52:12.129Z,0.50
2023-03-21T06:53:12.164Z,0.51
2023-03-21T06:54:12.296Z,0.50
2023-03-21T06:55:12.167Z,0.50
2023-03-21T06:56:12.188Z,0.50
2023-03-21T06:57:12.219Z,0.50
2023-03-21T06:58:12.235Z,0.50
2023-03-21T06:59:12.254Z,0.51
2023-03-21T07:00:12.250Z,0.50
2023-03-21T07:01:11.318Z,0.50
2023-03-21T07:02:11.402Z,0.50
2023-03-21T07:03:12.324Z,0.50
2023-03-21T07:04:12.336Z,0.50
2023-03-21T07:05:12.341Z,0.51
2023-03-21T07:06:12.359Z,0.50
2023-03-21T07:07:12.413Z,0.51
2023-03-21T07:09:12.443Z,0.51
2023-03-21T07:10:12.477Z,0.50
2023-03-21T07:11:12.492Z,0.50
2023-03-21T07:12:12.527Z,0.50
2023-03-21T07:13:12.560Z,0.50
2023-03-21T07:14:11.592Z,0.51
2023-03-21T07:15:12.624Z,0.50
2023-03-21T07:16:11.756Z,0.51
2023-03-21T07:17:12.679Z,0.50
2023-03-21T07:18:12.732Z,0.51
2023-03-21T07:19:12.764Z,0.51
2023-03-21T07:20:11.788Z,0.50
2023-03-21T07:21:11.827Z,0.51
2023-03-21T07:22:12.826Z,0.51
2023-03-21T07:23:12.873Z,0.51
2023-03-21T07:24:11.868Z,0.51
2023-03-21T07:25:11.988Z,0.50
2023-03-21T07:26:12.914Z,0.50
2023-03-21T07:27:12.963Z,0.50
2023-03-21T07:28:12.980Z,0.51
2023-03-21T07:29:13.033Z,0.51
2023-03-21T07:30:13.070Z,0.50
2023-03-21T07:31:12.117Z,0.51
2023-03-21T07:32:13.098Z,0.50
2023-03-21T07:33:13.132Z,0.50
2023-03-21T07:34:12.154Z,0.51
2023-03-21T07:35:13.196Z,0.51
2023-03-21T07:36:13.305Z,0.51
2023-03-21T07:37:13.263Z,0.51
2023-03-21T07:38:13.320Z,0.50
2023-03-21T07:39:13.376Z,0.50
2023-03-21T07:40:12.412Z,0.50
2023-03-21T07:41:13.475Z,0.50
2023-03-21T07:42:13.498Z,0.51
2023-03-21T07:43:13.514Z,0.50
2023-03-21T07:44:13.541Z,0.51
2023-03-21T07:45:13.587Z,0.50
2023-03-21T07:46:13.676Z,0.50
2023-03-21T07:47:13.647Z,0.52
2023-03-21T07:48:13.847Z,0.51
2023-03-21T07:49:13.720Z,0.50
2023-03-21T07:50:13.745Z,0.50
2023-03-21T07:51:13.834Z,0.51
2023-03-21T07:52:13.986Z,0.53
2023-03-21T07:53:12.863Z,0.54
2023-03-21T07:54:15.029Z,0.57
2023-03-21T07:55:14.373Z,0.57
2023-03-21T07:56:13.960Z,0.60
2023-03-21T07:57:14.187Z,0.61
2023-03-21T07:58:14.190Z,0.62
2023-03-21T07:59:14.040Z,0.64
2023-03-21T08:00:14.072Z,0.66
2023-03-21T08:01:14.075Z,0.66
2023-03-21T08:02:14.133Z,0.67
2023-03-21T08:03:14.033Z,0.65
2023-03-21T08:04:14.020Z,0.64
2023-03-21T08:05:14.020Z,0.63
2023-03-21T08:06:14.029Z,0.62
2023-03-21T08:07:13.027Z,0.60
2023-03-21T08:08:13.083Z,0.58
2023-03-21T08:09:14.089Z,0.58
2023-03-21T08:10:14.076Z,0.55
2023-03-21T08:11:14.123Z,0.57
2023-03-21T08:12:14.196Z,0.57
2023-03-21T08:13:14.168Z,0.58
2023-03-21T08:14:14.134Z,0.58
2023-03-21T08:15:14.156Z,0.58
2023-03-21T08:16:14.179Z,0.60
2023-03-21T08:17:14.254Z,0.61
2023-03-21T08:18:14.293Z,0.63
2023-03-21T08:19:14.372Z,0.63
2023-03-21T08:20:14.376Z,0.64
2023-03-21T08:21:14.432Z,0.64
2023-03-21T08:22:13.504Z,0.67
2023-03-21T08:23:14.518Z,0.67
2023-03-21T08:24:14.536Z,0.68
2023-03-21T08:25:14.573Z,0.68
2023-03-21T08:26:14.597Z,0.69
2023-03-21T08:27:14.689Z,0.71
2023-03-21T08:28:14.691Z,0.72
2023-03-21T08:29:14.650Z,0.72
2023-03-21T08:30:14.685Z,0.72
2023-03-21T08:31:14.732Z,0.72
2023-03-21T08:32:14.729Z,0.74
2023-03-21T08:33:14.678Z,0.74
2023-03-21T08:34:13.687Z,0.75
2023-03-21T08:35:14.668Z,0.75
2023-03-21T08:36:14.737Z,0.78
2023-03-21T08:37:13.687Z,0.77
2023-03-21T08:38:14.677Z,0.77
2023-03-21T08:39:13.713Z,0.78
2023-03-21T08:40:13.705Z,0.76
2023-03-21T08:41:13.706Z,0.77
2023-03-21T08:42:13.692Z,0.78
2023-03-21T08:43:15.037Z,0.80
2023-03-21T08:44:14.689Z,0.78
2023-03-21T08:45:14.874Z,0.80
2023-03-21T08:46:13.708Z,0.79
2023-03-21T08:47:14.718Z,0.80
2023-03-21T08:48:14.784Z,0.83
2023-03-21T08:49:14.742Z,0.81
2023-03-21T08:50:14.845Z,0.81
2023-03-21T08:51:14.765Z,0.82
2023-03-21T08:52:14.753Z,0.83
2023-03-21T08:53:13.756Z,0.80
2023-03-21T08:54:14.789Z,0.70
2023-03-21T08:55:14.863Z,0.61
2023-03-21T08:56:14.881Z,0.59
2023-03-21T08:57:14.940Z,0.63
2023-03-21T08:58:14.003Z,0.58
2023-03-21T08:59:14.045Z,0.60
2023-03-21T09:00:15.311Z,0.57
2023-03-21T09:01:15.113Z,0.57
2023-03-21T09:02:14.128Z,0.57
2023-03-21T09:03:15.253Z,0.57
2023-03-21T09:04:15.204Z,0.57
2023-03-21T09:05:15.278Z,0.58
2023-03-21T09:06:15.191Z,0.60
2023-03-21T09:07:15.186Z,0.62
2023-03-21T09:08:15.173Z,0.62
2023-03-21T09:09:15.238Z,0.62
2023-03-21T09:10:20.970Z,0.63
2023-03-21T09:11:15.212Z,0.63
2023-03-21T09:12:15.186Z,0.64
2023-03-21T09:13:15.185Z,0.65
2023-03-21T09:14:15.172Z,0.66
2023-03-21T09:15:15.210Z,0.69
2023-03-21T09:16:15.188Z,0.69
2023-03-21T09:17:15.165Z,0.70
2023-03-21T09:18:15.175Z,0.70
2023-03-21T09:19:15.143Z,0.72
2023-03-21T09:21:15.125Z,0.74
2023-03-21T09:22:14.136Z,0.74
2023-03-21T09:23:15.223Z,0.74
2023-03-21T09:24:15.093Z,0.75
2023-03-21T09:25:15.105Z,0.76
2023-03-21T09:26:15.376Z,0.75
2023-03-21T09:27:15.126Z,0.76
2023-03-21T09:28:15.068Z,0.77
2023-03-21T09:29:16.205Z,0.78
2023-03-21T09:30:15.054Z,0.81
2023-03-21T09:31:15.382Z,0.81
2023-03-21T09:32:15.063Z,0.81
2023-03-21T09:33:15.055Z,0.81
2023-03-21T09:34:15.037Z,0.80
2023-03-21T09:35:15.089Z,0.80
2023-03-21T09:36:15.297Z,0.81
2023-03-21T09:37:15.241Z,0.83
2023-03-21T09:38:15.269Z,0.81
2023-03-21T09:39:14.358Z,0.83
2023-03-21T09:40:15.448Z,0.82
2023-03-21T09:41:14.765Z,0.83
2023-03-21T09:42:15.951Z,0.83
2023-03-21T09:43:15.569Z,0.82
2023-03-21T09:44:15.635Z,0.83
2023-03-21T09:45:14.684Z,0.85
2023-03-21T09:46:15.805Z,0.84
2023-03-21T09:47:15.782Z,0.87
2023-03-21T09:48:15.906Z,0.87
2023-03-21T09:49:15.924Z,0.84
2023-03-21T09:50:15.968Z,0.86
2023-03-21T09:51:16.055Z,0.86
2023-03-21T09:52:16.073Z,0.85
2023-03-21T09:53:15.093Z,0.86
2023-03-21T09:54:16.243Z,0.86
2023-03-21T09:55:16.286Z,0.88
2023-03-21T09:56:16.370Z,0.90
2023-03-21T09:57:15.307Z,0.90
2023-03-21T09:58:16.438Z,0.91
2023-03-21T09:59:16.388Z,0.91
2023-03-21T10:00:16.458Z,0.93
2023-03-21T10:01:15.687Z,0.91
2023-03-21T10:02:15.563Z,0.92
2023-03-21T10:03:16.624Z,0.92
2023-03-21T10:04:15.765Z,0.92
2023-03-21T10:05:16.692Z,0.92
2023-03-21T10:06:16.742Z,0.92
2023-03-21T10:07:16.821Z,0.93
2023-03-21T10:08:16.830Z,0.95
2023-03-21T10:09:15.890Z,0.94
2023-03-21T10:10:16.937Z,0.95
2023-03-21T10:11:15.989Z,0.95
2023-03-21T10:12:17.037Z,0.95
2023-03-21T10:13:16.095Z,0.95
2023-03-21T10:14:17.129Z,0.94
2023-03-21T10:15:16.241Z,0.96
2023-03-21T10:16:17.417Z,0.96
2023-03-21T10:18:17.259Z,0.96
2023-03-21T10:19:17.294Z,0.98
2023-03-21T10:20:17.300Z,0.95
2023-03-21T10:21:37.385Z,0.96
2023-03-21T10:22:17.319Z,0.96
2023-03-21T10:23:17.309Z,0.96
2023-03-21T10:24:17.306Z,0.97
2023-03-21T10:25:16.319Z,0.99
2023-03-21T10:26:17.583Z,0.99
2023-03-21T10:27:16.280Z,1.04
2023-03-21T10:28:17.282Z,1.02
2023-03-21T10:29:16.308Z,1.00
2023-03-21T10:30:17.326Z,1.01
2023-03-21T10:31:17.348Z,1.00
2023-03-21T10:32:17.266Z,1.01
2023-03-21T10:33:17.318Z,1.01
2023-03-21T10:34:17.259Z,0.99
2023-03-21T10:35:17.269Z,1.00
2023-03-21T10:36:17.313Z,0.99
2023-03-21T10:37:17.316Z,0.96
2023-03-21T10:38:16.404Z,1.00
2023-03-21T10:39:17.448Z,1.00
2023-03-21T10:40:17.472Z,1.00
2023-03-21T10:41:17.883Z,1.01
2023-03-21T10:42:17.555Z,1.03
2023-03-21T10:43:17.595Z,1.03
2023-03-21T10:44:17.658Z,1.02
2023-03-21T10:45:16.698Z,1.00
2023-03-21T10:46:18.077Z,1.01
2023-03-21T10:47:17.027Z,0.99
2023-03-21T10:48:18.047Z,1.00
2023-03-21T10:49:17.824Z,1.02
2023-03-21T10:50:17.983Z,1.05
2023-03-21T10:51:18.404Z,1.05
2023-03-21T10:52:18.004Z,1.10
2023-03-21T10:53:18.018Z,1.12
2023-03-21T10:54:18.008Z,1.13
2023-03-21T10:55:18.051Z,1.07
2023-03-21T10:56:18.095Z,1.09
2023-03-21T10:57:17.174Z,1.10
2023-03-21T10:58:18.139Z,1.16
2023-03-21T10:59:18.833Z,1.14
2023-03-21T11:00:17.131Z,1.20
2023-03-21T11:01:18.166Z,1.13
2023-03-21T11:02:18.297Z,1.10
2023-03-21T11:03:18.224Z,1.13
2023-03-21T11:04:18.224Z,1.13
2023-03-21T11:05:20.500Z,1.13
2023-03-21T11:06:18.234Z,1.18
2023-03-21T11:07:18.225Z,1.19
2023-03-21T11:08:18.253Z,1.17
2023-03-21T11:09:18.205Z,1.16
2023-03-21T11:10:28.057Z,1.18
2023-03-21T11:11:19.347Z,1.18
2023-03-21T11:12:18.184Z,1.18
2023-03-21T11:13:18.196Z,1.19
2023-03-21T11:14:18.171Z,1.18
2023-03-21T11:15:17.170Z,1.16
2023-03-21T11:16:18.233Z,1.20
2023-03-21T11:17:18.176Z,1.21
2023-03-21T11:18:18.155Z,1.19
2023-03-21T11:19:17.289Z,1.20
2023-03-21T11:20:18.237Z,1.20
2023-03-21T11:21:17.153Z,1.19
2023-03-21T11:22:17.117Z,1.18
2023-03-21T11:23:20.518Z,1.17
2023-03-21T11:24:18.100Z,1.17
2023-03-21T11:25:18.090Z,1.18
2023-03-21T11:26:18.115Z,1.18
2023-03-21T11:27:17.091Z,1.16
2023-03-21T11:28:18.081Z,1.18
2023-03-21T11:29:18.442Z,1.20
2023-03-21T11:30:18.141Z,1.21
2023-03-21T11:31:18.164Z,1.20
2023-03-21T11:32:18.048Z,1.16
2023-03-21T11:33:18.040Z,1.17
2023-03-21T11:34:18.054Z,1.17
2023-03-21T11:35:19.717Z,1.17
2023-03-21T11:36:17.464Z,1.16
2023-03-21T11:38:17.344Z,1.17
2023-03-21T11:41:18.514Z,1.17
2023-03-21T11:44:18.405Z,1.14
2023-03-21T11:48:18.474Z,1.13
2023-03-21T11:49:18.428Z,1.14
2023-03-21T11:51:17.484Z,1.13
2023-03-21T11:53:18.534Z,1.15
2023-03-21T11:55:17.727Z,1.16
2023-03-21T11:56:18.797Z,1.15
2023-03-21T11:57:18.730Z,1.12
2023-03-21T11:58:17.710Z,1.15
2023-03-21T11:59:17.626Z,1.12
2023-03-21T12:01:17.721Z,1.13
2023-03-21T12:14:19.233Z,1.19
2023-03-21T12:18:19.534Z,1.19
2023-03-21T12:25:19.814Z,1.23
2023-03-21T12:26:19.874Z,1.21
2023-03-21T12:30:19.133Z,1.23
2023-03-21T12:48:20.472Z,1.21
2023-03-21T12:55:20.399Z,1.19
2023-03-21T13:23:20.229Z,1.15
2023-03-21T13:37:20.842Z,1.10
2023-03-21T13:55:20.753Z,1.10
2023-03-21T13:56:21.817Z,1.11
2023-03-21T13:58:21.920Z,1.10
2023-03-21T14:05:21.349Z,1.09
2023-03-21T14:21:24.290Z,1.05
2023-03-21T14:22:23.303Z,1.06
2023-03-21T14:23:23.314Z,1.05
2023-03-21T14:24:23.380Z,1.06
2023-03-21T14:25:27.176Z,1.05
2023-03-21T14:29:26.392Z,1.05
2023-03-21T14:30:23.389Z,1.05
2023-03-21T14:31:23.443Z,1.05
2023-03-21T14:32:23.381Z,1.05
2023-03-21T14:34:23.383Z,1.05
2023-03-21T14:35:23.461Z,1.04
2023-03-21T14:36:22.502Z,1.05
2023-03-21T14:37:23.344Z,1.03
2023-03-21T14:38:23.332Z,1.03
2023-03-21T14:39:22.330Z,1.03
2023-03-21T14:40:23.313Z,1.03
2023-03-21T14:41:23.326Z,1.02
2023-03-21T14:42:23.316Z,1.03
2023-03-21T14:43:22.324Z,1.02
2023-03-21T14:44:23.304Z,1.03
2023-03-21T14:46:23.339Z,1.01
2023-03-21T14:47:23.315Z,1.02
2023-03-21T14:48:22.369Z,1.00
2023-03-21T14:49:23.280Z,1.00
2023-03-21T14:50:23.260Z,1.01
2023-03-21T14:51:23.383Z,1.00
2023-03-21T14:52:22.245Z,1.00
2023-03-21T14:53:23.228Z,0.99
2023-03-21T14:54:23.226Z,0.99
2023-03-21T14:55:23.226Z,0.99
2023-03-21T14:56:23.230Z,0.99
2023-03-21T14:57:23.216Z,1.00
2023-03-21T14:58:23.228Z,0.99
2023-03-21T14:59:23.193Z,1.00
2023-03-21T15:00:23.190Z,0.99
2023-03-21T15:01:23.263Z,0.99
2023-03-21T15:02:23.212Z,0.98
2023-03-21T15:03:22.184Z,0.98
2023-03-21T15:04:23.177Z,0.97
2023-03-21T15:05:22.238Z,0.98
2023-03-21T15:06:23.223Z,0.98
2023-03-21T15:07:23.297Z,0.98
2023-03-21T15:08:23.135Z,0.97
2023-03-21T15:09:23.157Z,0.98
2023-03-21T15:10:23.137Z,0.97
2023-03-21T15:11:23.126Z,0.96
2023-03-21T15:12:23.127Z,0.98
2023-03-21T15:13:23.156Z,0.97
2023-03-21T15:14:23.100Z,0.96
2023-03-21T15:15:22.103Z,0.96
2023-03-21T15:16:23.155Z,0.97
2023-03-21T15:17:23.078Z,0.97
2023-03-21T15:18:23.076Z,0.95
2023-03-21T15:19:23.335Z,0.96
2023-03-21T15:20:23.129Z,0.96
2023-03-21T15:21:23.123Z,0.95
2023-03-21T15:22:23.137Z,0.95
2023-03-21T15:23:23.332Z,0.95
2023-03-21T15:24:23.290Z,0.95
2023-03-21T15:25:22.246Z,0.94
2023-03-21T15:26:22.288Z,0.94
2023-03-21T15:27:23.232Z,0.94
2023-03-21T15:28:22.245Z,0.95
2023-03-21T15:29:23.235Z,0.94
2023-03-21T15:30:23.248Z,0.94
2023-03-21T15:31:23.380Z,0.94
2023-03-21T15:32:23.241Z,0.94
2023-03-21T15:33:23.241Z,0.93
2023-03-21T15:34:23.245Z,0.93
2023-03-21T15:35:23.251Z,0.94
2023-03-21T15:36:23.340Z,0.93
2023-03-21T15:37:23.242Z,0.93
2023-03-21T15:38:23.259Z,0.92
2023-03-21T15:39:23.375Z,0.93
2023-03-21T15:40:23.262Z,0.93
2023-03-21T15:41:23.289Z,0.92
2023-03-21T15:42:23.299Z,0.92
2023-03-21T15:43:23.290Z,0.92
2023-03-21T15:44:23.271Z,0.93
2023-03-21T15:45:22.276Z,0.91
2023-03-21T15:46:23.791Z,0.91
2023-03-21T15:47:22.293Z,0.92
2023-03-21T15:54:22.330Z,0.90
2023-03-21T15:57:23.354Z,0.89
2023-03-21T16:00:22.435Z,0.90
2023-03-21T16:01:23.479Z,0.88
2023-03-21T16:07:23.493Z,0.88
2023-03-21T16:13:23.592Z,0.87
2023-03-21T16:16:22.658Z,0.87
2023-03-21T16:18:23.598Z,0.87
2023-03-21T16:21:23.635Z,0.85
